createdAt,value
2024-01-11T00:01:52.761Z,37.28
2024-01-11T00:04:20.963Z,37.84
2024-01-11T00:06:49.271Z,37.64
2024-01-11T00:09:17.543Z,36.79
2024-01-11T00:11:45.710Z,36.50
2024-01-11T00:14:13.941Z,36.41
2024-01-11T00:16:43.088Z,36.63
2024-01-11T00:19:11.373Z,37.02
2024-01-11T00:21:41.881Z,36.80
2024-01-11T00:24:10.475Z,36.85
2024-01-11T00:26:38.755Z,36.75
2024-01-11T00:29:07.053Z,37.04
2024-01-11T00:31:35.297Z,37.40
2024-01-11T00:34:03.673Z,37.21
2024-01-11T00:36:32.051Z,36.77
2024-01-11T00:39:00.529Z,36.66
2024-01-11T00:41:28.980Z,36.61
2024-01-11T00:43:57.297Z,36.93
2024-01-11T00:46:25.565Z,36.59
2024-01-11T00:48:56.574Z,36.34
2024-01-11T00:51:25.182Z,36.39
2024-01-11T00:53:53.317Z,36.57
2024-01-11T00:56:22.526Z,36.35
2024-01-11T00:58:50.726Z,36.00
2024-01-11T01:01:19.015Z,36.01
2024-01-11T01:03:47.179Z,36.48
2024-01-11T01:06:15.494Z,36.51
2024-01-11T01:08:43.677Z,36.72
2024-01-11T01:11:11.830Z,36.93
2024-01-11T01:13:40.166Z,37.02
2024-01-11T01:16:08.344Z,36.93
2024-01-11T01:18:36.570Z,37.09
2024-01-11T01:21:08.288Z,36.96
2024-01-11T01:23:36.503Z,36.99
2024-01-11T01:26:07.485Z,37.19
2024-01-11T01:28:35.967Z,37.31
2024-01-11T01:31:04.365Z,37.22
2024-01-11T01:33:32.855Z,36.36
2024-01-11T01:36:00.996Z,35.99
2024-01-11T01:38:29.124Z,36.12
2024-01-11T01:40:57.457Z,36.26
2024-01-11T01:43:25.511Z,36.51
2024-01-11T01:45:54.202Z,36.51
2024-01-11T01:48:22.836Z,36.22
2024-01-11T01:50:54.389Z,36.06
2024-01-11T01:53:23.670Z,36.17
2024-01-11T01:55:52.966Z,35.73
2024-01-11T01:58:21.811Z,35.65
2024-01-11T02:00:52.597Z,35.73
2024-01-11T02:03:21.275Z,35.79
2024-01-11T02:05:49.943Z,35.59
2024-01-11T02:08:20.580Z,35.60
2024-01-11T02:10:49.128Z,36.00
2024-01-11T02:13:17.400Z,36.35
2024-01-11T02:15:46.975Z,36.50
2024-01-11T02:18:15.370Z,36.14
2024-01-11T02:20:43.684Z,36.38
2024-01-11T02:23:19.903Z,36.22
2024-01-11T02:25:48.104Z,36.23
2024-01-11T02:28:16.278Z,36.01
2024-01-11T02:30:44.508Z,36.12
2024-01-11T02:33:17.461Z,36.38
2024-01-11T02:35:48.028Z,35.60
2024-01-11T02:38:17.231Z,35.77
2024-01-11T02:40:46.044Z,35.97
2024-01-11T02:43:14.739Z,36.73
2024-01-11T02:45:42.793Z,37.91
2024-01-11T02:48:11.059Z,38.13
2024-01-11T02:50:39.488Z,37.19
2024-01-11T02:53:07.641Z,36.73
2024-01-11T02:55:35.791Z,36.40
2024-01-11T02:58:04.090Z,36.06
2024-01-11T03:00:32.182Z,36.06
2024-01-11T03:03:00.371Z,35.62
2024-01-11T03:05:29.009Z,35.76
2024-01-11T03:07:57.297Z,36.56
2024-01-11T03:10:25.348Z,36.85
2024-01-11T03:12:53.422Z,36.80
2024-01-11T03:15:21.485Z,36.77
2024-01-11T03:17:49.853Z,36.82
2024-01-11T03:20:21.659Z,36.65
2024-01-11T03:22:49.786Z,36.47
2024-01-11T03:25:17.854Z,36.07
2024-01-11T03:27:46.331Z,35.82
2024-01-11T03:30:14.818Z,35.77
2024-01-11T03:32:43.241Z,35.61
2024-01-11T03:35:11.659Z,35.81
2024-01-11T03:37:40.048Z,35.39
2024-01-11T03:40:08.638Z,34.98
2024-01-11T03:42:36.696Z,34.99
2024-01-11T03:45:06.056Z,34.78
2024-01-11T03:47:34.294Z,34.83
2024-01-11T03:50:03.390Z,34.95
2024-01-11T03:52:31.547Z,35.13
2024-01-11T03:54:59.712Z,35.05
2024-01-11T03:57:27.984Z,35.02
2024-01-11T03:59:56.064Z,34.68
2024-01-11T04:02:24.225Z,34.59
2024-01-11T04:04:52.711Z,34.57
2024-01-11T04:07:20.795Z,34.62
2024-01-11T04:09:48.875Z,34.81
2024-01-11T04:12:17.029Z,35.27
2024-01-11T04:14:45.276Z,35.59
2024-01-11T04:17:13.669Z,35.72
2024-01-11T04:19:41.955Z,36.01
2024-01-11T04:22:10.226Z,34.50
2024-01-11T04:24:38.294Z,31.29
2024-01-11T04:27:06.668Z,31.79
2024-01-11T04:29:34.871Z,32.75
2024-01-11T04:32:03.096Z,34.68
2024-01-11T04:34:32.612Z,35.81
2024-01-11T04:37:00.999Z,37.08
2024-01-11T04:39:29.172Z,38.31
2024-01-11T04:41:57.246Z,39.59
2024-01-11T04:44:27.885Z,40.88
2024-01-11T04:46:56.436Z,41.89
2024-01-11T04:49:25.004Z,43.43
2024-01-11T04:51:53.220Z,45.30
2024-01-11T04:54:21.382Z,47.84
2024-01-11T04:56:49.607Z,48.48
2024-01-11T04:59:17.871Z,51.27
2024-01-11T05:01:47.446Z,63.51
2024-01-11T05:04:15.605Z,65.18
2024-01-11T05:06:44.061Z,61.11
2024-01-11T05:09:12.269Z,56.65
2024-01-11T05:11:40.485Z,53.51
2024-01-11T05:14:08.777Z,50.99
2024-01-11T05:16:37.292Z,49.32
2024-01-11T05:19:05.471Z,47.86
2024-01-11T05:21:33.732Z,46.67
2024-01-11T05:24:02.736Z,45.40
2024-01-11T05:26:31.200Z,43.81
2024-01-11T05:28:59.962Z,42.45
2024-01-11T05:31:28.242Z,42.11
2024-01-11T05:33:56.642Z,41.52
2024-01-11T05:36:25.131Z,40.55
2024-01-11T05:38:53.196Z,39.46
2024-01-11T05:41:21.279Z,39.41
2024-01-11T05:43:49.441Z,36.47
2024-01-11T05:46:17.510Z,33.29
2024-01-11T05:48:45.811Z,33.42
2024-01-11T05:51:14.064Z,34.53
2024-01-11T05:53:42.245Z,35.84
2024-01-11T05:56:12.133Z,36.58
2024-01-11T05:58:41.400Z,37.82
2024-01-11T06:01:10.331Z,38.98
2024-01-11T06:03:39.916Z,40.39
2024-01-11T06:06:08.653Z,42.01
2024-01-11T06:08:36.944Z,43.50
2024-01-11T06:11:05.789Z,44.30
2024-01-11T06:13:34.276Z,45.54
2024-01-11T06:16:02.851Z,47.46
2024-01-11T06:18:32.036Z,47.79
2024-01-11T06:21:00.328Z,47.73
2024-01-11T06:23:28.966Z,49.85
2024-01-11T06:25:57.423Z,50.80
2024-01-11T06:28:25.562Z,52.95
2024-01-11T06:30:55.104Z,52.55
2024-01-11T06:33:23.505Z,62.74
2024-01-11T06:35:51.983Z,64.75
2024-01-11T06:38:20.220Z,59.92
2024-01-11T06:40:50.015Z,55.14
2024-01-11T06:43:18.040Z,52.49
2024-01-11T06:45:46.289Z,48.44
2024-01-11T06:48:14.587Z,45.84
2024-01-11T06:50:43.049Z,45.22
2024-01-11T06:53:11.300Z,43.21
2024-01-11T06:55:39.582Z,40.70
2024-01-11T06:58:07.937Z,36.68
2024-01-11T07:00:36.914Z,33.61
2024-01-11T07:03:05.085Z,34.01
2024-01-11T07:05:33.570Z,35.77
2024-01-11T07:08:01.779Z,36.10
2024-01-11T07:10:30.024Z,38.28
2024-01-11T07:12:58.145Z,38.95
2024-01-11T07:15:26.471Z,39.36
2024-01-11T07:17:54.991Z,42.81
2024-01-11T07:20:23.278Z,43.95
2024-01-11T07:22:51.513Z,43.65
2024-01-11T07:25:19.567Z,45.60
2024-01-11T07:27:47.599Z,47.17
2024-01-11T07:30:16.411Z,46.33
2024-01-11T07:32:44.893Z,47.11
2024-01-11T07:35:17.658Z,48.18
2024-01-11T07:37:47.301Z,48.94
2024-01-11T07:40:15.620Z,49.46
2024-01-11T07:42:44.447Z,48.11
2024-01-11T07:45:12.677Z,49.68
2024-01-11T07:47:41.481Z,49.77
2024-01-11T07:50:16.684Z,50.27
2024-01-11T07:52:44.921Z,50.52
2024-01-11T07:55:14.263Z,50.34
2024-01-11T07:57:42.850Z,52.39
2024-01-11T08:00:11.396Z,52.64
2024-01-11T08:02:42.376Z,52.64
2024-01-11T08:05:10.994Z,52.66
2024-01-11T08:07:39.701Z,53.30
2024-01-11T08:10:08.486Z,52.34
2024-01-11T08:12:37.628Z,53.22
2024-01-11T08:15:06.549Z,53.06
2024-01-11T08:17:34.711Z,52.36
2024-01-11T08:20:03.045Z,53.52
2024-01-11T08:22:35.071Z,54.47
2024-01-11T08:25:05.870Z,56.21
2024-01-11T08:27:34.901Z,55.59
2024-01-11T08:30:03.683Z,55.53
2024-01-11T08:32:32.764Z,55.24
2024-01-11T08:35:01.441Z,54.38
2024-01-11T08:37:29.764Z,54.44
2024-01-11T08:39:57.807Z,54.52
2024-01-11T08:42:26.003Z,55.43
2024-01-11T08:44:54.263Z,56.02
2024-01-11T08:47:22.615Z,56.14
2024-01-11T08:49:51.435Z,55.37
2024-01-11T08:52:19.428Z,55.01
2024-01-11T08:54:47.669Z,55.00
2024-01-11T08:57:16.372Z,55.30
2024-01-11T08:59:44.716Z,55.61
2024-01-11T09:02:16.750Z,55.31
2024-01-11T09:04:48.946Z,56.19
2024-01-11T09:07:17.543Z,56.11
2024-01-11T09:09:53.664Z,56.02
2024-01-11T09:12:25.174Z,55.64
2024-01-11T09:14:53.615Z,55.40
2024-01-11T09:17:23.206Z,55.44
2024-01-11T09:19:52.226Z,55.51
2024-01-11T09:22:20.510Z,56.41
2024-01-11T09:24:48.686Z,56.26
2024-01-11T09:27:17.051Z,56.88
2024-01-11T09:29:46.102Z,56.23
2024-01-11T09:32:14.601Z,56.35
2024-01-11T09:34:42.988Z,55.93
2024-01-11T09:37:11.178Z,56.43
2024-01-11T09:39:39.616Z,56.61
2024-01-11T09:42:08.752Z,56.90
2024-01-11T09:44:41.006Z,57.21
2024-01-11T09:47:11.734Z,57.18
2024-01-11T09:49:43.940Z,57.66
2024-01-11T09:52:14.396Z,57.09
2024-01-11T09:54:42.925Z,57.38
2024-01-11T09:57:11.314Z,57.24
2024-01-11T09:59:39.630Z,57.23
2024-01-11T10:02:11.096Z,57.51
2024-01-11T10:04:39.302Z,57.46
2024-01-11T10:07:08.189Z,57.91
2024-01-11T10:09:36.879Z,58.25
2024-01-11T10:12:06.317Z,58.35
2024-01-11T10:14:35.039Z,57.98
2024-01-11T10:17:03.279Z,58.95
2024-01-11T10:19:31.694Z,59.80
2024-01-11T10:22:00.708Z,60.32
2024-01-11T10:24:29.768Z,59.96
2024-01-11T10:26:59.706Z,60.13
2024-01-11T10:29:32.024Z,60.60
2024-01-11T10:32:00.696Z,60.65
2024-01-11T10:34:29.080Z,60.75
2024-01-11T10:36:58.147Z,60.16
2024-01-11T10:39:27.564Z,60.02
2024-01-11T10:42:07.094Z,60.16
2024-01-11T10:44:37.394Z,60.92
2024-01-11T10:47:09.112Z,61.80
2024-01-11T10:49:41.342Z,61.80
2024-01-11T10:52:09.904Z,65.42
2024-01-11T10:54:38.422Z,64.80
2024-01-11T10:57:06.965Z,61.31
2024-01-11T10:59:36.806Z,60.29
2024-01-11T11:02:07.857Z,59.53
2024-01-11T11:04:37.325Z,56.22
2024-01-11T11:07:08.976Z,55.23
2024-01-11T11:09:38.638Z,55.48
2024-01-11T11:12:07.366Z,56.04
2024-01-11T11:14:36.625Z,57.56
2024-01-11T11:17:05.774Z,57.15
2024-01-11T11:19:34.085Z,57.64
2024-01-11T11:22:06.251Z,58.04
2024-01-11T11:24:37.576Z,58.61
2024-01-11T11:27:06.851Z,59.31
2024-01-11T11:29:35.090Z,59.55
2024-01-11T11:32:04.612Z,60.39
2024-01-11T11:34:46.587Z,60.27
2024-01-11T11:37:24.451Z,60.48
2024-01-11T11:39:53.114Z,60.38
2024-01-11T11:42:26.000Z,60.90
2024-01-11T11:44:54.296Z,61.99
2024-01-11T11:47:24.575Z,64.00
2024-01-11T11:50:04.665Z,64.79
2024-01-11T11:52:37.979Z,64.68
2024-01-11T11:55:10.000Z,62.58
2024-01-11T11:57:38.165Z,61.56
2024-01-11T12:00:07.861Z,58.92
2024-01-11T12:02:43.132Z,56.83
2024-01-11T12:05:11.598Z,56.84
2024-01-11T12:07:39.978Z,57.82
2024-01-11T12:10:08.240Z,58.70
2024-01-11T12:12:38.975Z,59.26
2024-01-11T12:15:07.871Z,59.81
2024-01-11T12:17:36.146Z,61.18
2024-01-11T12:20:05.052Z,62.99
2024-01-11T12:22:33.405Z,65.79
2024-01-11T12:25:02.619Z,65.88
2024-01-11T12:27:31.855Z,64.83
2024-01-11T12:30:00.236Z,62.09
2024-01-11T12:32:31.222Z,61.17
2024-01-11T12:34:59.663Z,60.65
2024-01-11T12:37:28.183Z,59.89
2024-01-11T12:39:59.885Z,58.56
2024-01-11T12:42:30.873Z,57.46
2024-01-11T12:44:59.774Z,57.36
2024-01-11T12:47:28.961Z,58.63
2024-01-11T12:49:57.658Z,60.24
2024-01-11T12:52:28.758Z,63.65
2024-01-11T12:54:58.158Z,65.53
2024-01-11T12:57:26.520Z,65.74
2024-01-11T12:59:54.942Z,65.38
2024-01-11T13:02:23.066Z,63.76
2024-01-11T13:04:52.112Z,63.21
2024-01-11T13:07:20.483Z,62.69
2024-01-11T13:09:48.702Z,62.94
2024-01-11T13:12:16.821Z,62.84
2024-01-11T13:14:45.077Z,62.63
2024-01-11T13:17:13.505Z,62.45
2024-01-11T13:19:41.759Z,62.42
2024-01-11T13:22:10.236Z,62.63
2024-01-11T13:24:38.307Z,62.65
2024-01-11T13:27:06.657Z,62.74
2024-01-11T13:29:35.178Z,62.92
2024-01-11T13:32:05.762Z,62.49
2024-01-11T13:34:34.061Z,62.44
2024-01-11T13:37:02.442Z,62.13
2024-01-11T13:39:30.611Z,62.27
2024-01-11T13:41:59.617Z,62.57
2024-01-11T13:44:28.067Z,62.96
2024-01-11T13:46:56.466Z,63.04
2024-01-11T13:49:26.580Z,63.03
2024-01-11T13:52:00.914Z,62.99
2024-01-11T13:54:30.335Z,63.51
2024-01-11T13:56:58.483Z,63.60
2024-01-11T13:59:27.402Z,64.08
2024-01-11T14:01:55.639Z,63.59
2024-01-11T14:04:25.180Z,64.10
2024-01-11T14:06:54.012Z,64.22
2024-01-11T14:09:23.633Z,64.74
2024-01-11T14:11:51.839Z,65.21
2024-01-11T14:14:22.032Z,65.87
2024-01-11T14:16:50.408Z,66.93
2024-01-11T14:19:18.770Z,68.25
2024-01-11T14:21:47.081Z,68.53
2024-01-11T14:24:18.207Z,69.36
2024-01-11T14:26:51.490Z,70.27
2024-01-11T14:29:19.591Z,70.83
2024-01-11T14:31:47.839Z,71.85
2024-01-11T14:34:16.025Z,71.79
2024-01-11T14:36:44.187Z,72.97
2024-01-11T14:39:12.373Z,73.91
2024-01-11T14:41:40.479Z,73.77
2024-01-11T14:44:09.063Z,73.13
2024-01-11T14:46:37.207Z,72.86
2024-01-11T14:49:05.911Z,71.44
2024-01-11T14:51:35.261Z,70.16
2024-01-11T14:54:05.096Z,69.82
2024-01-11T14:56:33.532Z,68.79
2024-01-11T14:59:03.329Z,68.28
2024-01-11T15:01:32.302Z,67.45
2024-01-11T15:04:00.682Z,67.48
2024-01-11T15:06:29.213Z,67.29
2024-01-11T15:08:57.848Z,67.31
2024-01-11T15:11:27.060Z,67.79
2024-01-11T15:13:55.271Z,67.50
2024-01-11T15:16:23.957Z,67.89
2024-01-11T15:18:52.260Z,68.18
2024-01-11T15:21:20.396Z,68.32
2024-01-11T15:23:48.597Z,68.38
2024-01-11T15:26:16.971Z,68.50
2024-01-11T15:28:45.143Z,68.69
2024-01-11T15:31:13.256Z,68.66
2024-01-11T15:33:41.707Z,68.98
2024-01-11T15:36:11.077Z,69.10
2024-01-11T15:38:39.418Z,69.29
2024-01-11T15:41:07.664Z,69.73
2024-01-11T15:43:37.059Z,69.86
2024-01-11T15:46:05.914Z,69.83
2024-01-11T15:48:34.251Z,70.06
2024-01-11T15:51:05.246Z,70.18
2024-01-11T15:53:33.652Z,70.05
2024-01-11T15:56:02.389Z,70.51
2024-01-11T15:58:30.463Z,70.33
2024-01-11T16:00:58.556Z,70.23
2024-01-11T16:03:26.711Z,70.80
2024-01-11T16:05:55.408Z,70.92
2024-01-11T16:08:23.695Z,70.52
2024-01-11T16:10:52.054Z,71.00
2024-01-11T16:13:20.225Z,70.92
2024-01-11T16:15:49.415Z,70.70
2024-01-11T16:18:19.167Z,70.66
2024-01-11T16:20:47.645Z,70.90
2024-01-11T16:23:16.009Z,70.73
2024-01-11T16:25:44.151Z,70.74
2024-01-11T16:28:12.219Z,70.75
2024-01-11T16:30:40.526Z,70.51
2024-01-11T16:33:10.311Z,70.37
2024-01-11T16:35:45.140Z,70.48
2024-01-11T16:38:20.620Z,70.36
2024-01-11T16:40:49.369Z,70.21
2024-01-11T16:43:17.740Z,70.09
2024-01-11T16:45:45.916Z,69.64
2024-01-11T16:48:18.618Z,69.76
2024-01-11T16:50:48.617Z,69.65
2024-01-11T16:53:17.111Z,69.41
2024-01-11T16:55:45.886Z,69.42
2024-01-11T16:58:14.264Z,69.22
2024-01-11T17:00:43.297Z,69.45
2024-01-11T17:03:11.734Z,69.40
2024-01-11T17:05:40.225Z,69.35
2024-01-11T17:08:08.615Z,69.38
2024-01-11T17:10:39.062Z,69.33
2024-01-11T17:13:07.483Z,69.13
2024-01-11T17:15:36.378Z,69.09
2024-01-11T17:18:05.113Z,69.39
2024-01-11T17:20:33.249Z,68.98
2024-01-11T17:23:01.542Z,69.08
2024-01-11T17:25:29.791Z,69.21
2024-01-11T17:27:57.957Z,69.11
2024-01-11T17:30:26.271Z,69.01
2024-01-11T17:32:55.827Z,68.85
2024-01-11T17:35:24.975Z,68.76
2024-01-11T17:37:53.209Z,68.98
2024-01-11T17:40:21.297Z,68.95
2024-01-11T17:42:49.553Z,68.80
2024-01-11T17:45:17.823Z,68.67
2024-01-11T17:47:46.420Z,68.72
2024-01-11T17:50:15.143Z,68.88
2024-01-11T17:52:45.970Z,68.70
2024-01-11T17:55:15.327Z,68.68
2024-01-11T17:57:43.710Z,68.69
2024-01-11T18:00:13.971Z,68.67
2024-01-11T18:02:42.194Z,68.54
2024-01-11T18:05:10.885Z,68.50
2024-01-11T18:07:39.274Z,68.28
2024-01-11T18:10:08.147Z,68.20
2024-01-11T18:12:36.220Z,68.29
2024-01-11T18:15:04.953Z,68.24
2024-01-11T18:17:33.271Z,68.15
2024-01-11T18:20:01.654Z,68.26
2024-01-11T18:22:31.612Z,68.20
2024-01-11T18:25:01.083Z,68.29
2024-01-11T18:27:29.456Z,68.14
2024-01-11T18:29:58.442Z,68.15
2024-01-11T18:32:26.800Z,68.33
2024-01-11T18:34:57.128Z,68.58
2024-01-11T18:37:27.163Z,68.73
2024-01-11T18:39:55.228Z,68.92
2024-01-11T18:42:25.094Z,69.07
2024-01-11T18:44:54.904Z,68.98
2024-01-11T18:47:23.196Z,68.99
2024-01-11T18:49:51.399Z,69.19
2024-01-11T18:52:19.679Z,69.30
2024-01-11T18:54:54.197Z,69.26
2024-01-11T18:57:26.484Z,68.91
2024-01-11T18:59:56.458Z,68.96
2024-01-11T19:02:24.772Z,69.20
2024-01-11T19:04:52.965Z,68.93
2024-01-11T19:07:21.540Z,68.92
2024-01-11T19:09:49.703Z,69.26
2024-01-11T19:12:17.778Z,69.13
2024-01-11T19:14:46.850Z,69.28
2024-01-11T19:17:15.660Z,69.49
2024-01-11T19:19:43.926Z,69.50
2024-01-11T19:22:12.290Z,69.53
2024-01-11T19:24:40.563Z,69.75
2024-01-11T19:27:08.842Z,70.06
2024-01-11T19:29:36.933Z,70.12
2024-01-11T19:32:05.508Z,70.31
2024-01-11T19:34:33.703Z,70.60
2024-01-11T19:37:02.768Z,70.87
2024-01-11T19:39:30.927Z,71.07
2024-01-11T19:42:00.300Z,71.21
2024-01-11T19:44:28.873Z,71.33
2024-01-11T19:46:57.292Z,71.31
2024-01-11T19:49:25.587Z,71.51
2024-01-11T19:51:53.851Z,71.68
2024-01-11T19:54:22.120Z,71.67
2024-01-11T19:56:50.229Z,71.67
2024-01-11T19:59:19.438Z,71.73
2024-01-11T20:01:47.572Z,71.52
2024-01-11T20:04:15.842Z,71.21
2024-01-11T20:06:44.748Z,71.33
2024-01-11T20:09:16.694Z,71.10
2024-01-11T20:11:45.330Z,71.31
2024-01-11T20:14:13.875Z,71.36
2024-01-11T20:16:42.221Z,71.31
2024-01-11T20:19:10.459Z,71.16
2024-01-11T20:21:38.676Z,71.13
2024-01-11T20:24:07.249Z,70.95
2024-01-11T20:26:35.589Z,70.98
2024-01-11T20:29:03.797Z,71.23
2024-01-11T20:31:32.912Z,71.31
2024-01-11T20:34:04.096Z,71.19
2024-01-11T20:36:32.458Z,71.14
2024-01-11T20:39:00.834Z,71.35
2024-01-11T20:41:29.116Z,71.44
2024-01-11T20:43:57.437Z,71.46
2024-01-11T20:46:25.812Z,71.80
2024-01-11T20:48:54.108Z,71.71
2024-01-11T20:51:22.279Z,71.80
2024-01-11T20:53:51.661Z,71.69
2024-01-11T20:56:19.873Z,71.60
2024-01-11T20:58:48.222Z,71.63
2024-01-11T21:01:16.706Z,71.41
2024-01-11T21:03:45.140Z,71.18
2024-01-11T21:06:14.625Z,71.21
2024-01-11T21:08:43.228Z,71.08
2024-01-11T21:11:11.512Z,70.72
2024-01-11T21:13:39.758Z,70.84
2024-01-11T21:16:07.900Z,70.87
2024-01-11T21:18:36.340Z,71.00
2024-01-11T21:21:04.859Z,70.92
2024-01-11T21:23:33.356Z,70.81
2024-01-11T21:26:01.596Z,70.88
2024-01-11T21:28:30.085Z,70.81
2024-01-11T21:30:58.412Z,70.67
2024-01-11T21:33:26.725Z,70.71
2024-01-11T21:35:54.978Z,70.77
2024-01-11T21:38:23.195Z,70.79
2024-01-11T21:40:53.022Z,70.48
2024-01-11T21:43:21.174Z,70.63
2024-01-11T21:45:49.225Z,70.54
2024-01-11T21:48:17.637Z,70.66
2024-01-11T21:50:46.011Z,70.43
2024-01-11T21:53:14.679Z,70.09
2024-01-11T21:55:42.949Z,70.14
2024-01-11T21:58:11.114Z,70.52
2024-01-11T22:00:39.322Z,70.44
2024-01-11T22:03:08.411Z,70.62
2024-01-11T22:05:36.870Z,70.87
2024-01-11T22:08:05.485Z,71.39
2024-01-11T22:10:33.523Z,70.87
2024-01-11T22:13:01.688Z,70.44
2024-01-11T22:15:30.166Z,70.27
2024-01-11T22:17:58.619Z,70.17
2024-01-11T22:20:27.195Z,70.09
2024-01-11T22:22:55.912Z,69.93
2024-01-11T22:25:24.397Z,69.71
2024-01-11T22:27:53.195Z,69.64
2024-01-11T22:30:21.693Z,69.73
2024-01-11T22:32:50.135Z,69.67
2024-01-11T22:35:19.600Z,69.98
2024-01-11T22:37:47.921Z,69.62
2024-01-11T22:40:16.096Z,69.82
2024-01-11T22:42:44.281Z,69.88
2024-01-11T22:45:12.438Z,70.34
2024-01-11T22:47:41.178Z,70.74
2024-01-11T22:50:10.103Z,70.70
2024-01-11T22:52:40.052Z,70.74
2024-01-11T22:55:08.302Z,70.76
2024-01-11T22:57:36.465Z,70.82
2024-01-11T23:00:22.035Z,70.75
2024-01-11T23:02:51.820Z,70.45
2024-01-11T23:05:20.926Z,70.43
2024-01-11T23:07:49.434Z,70.18
2024-01-11T23:10:18.364Z,70.20
2024-01-11T23:12:46.608Z,70.20
2024-01-11T23:15:14.776Z,69.96
2024-01-11T23:17:43.253Z,69.94
2024-01-11T23:20:12.296Z,70.00
2024-01-11T23:22:40.420Z,69.98
2024-01-11T23:25:09.229Z,69.91
2024-01-11T23:27:37.708Z,70.09
2024-01-11T23:30:06.594Z,70.05
2024-01-11T23:32:34.825Z,70.02
2024-01-11T23:35:03.238Z,69.96
2024-01-11T23:37:31.504Z,69.81
2024-01-11T23:39:59.694Z,69.87
2024-01-11T23:42:27.856Z,69.84
2024-01-11T23:44:56.234Z,69.84
2024-01-11T23:47:24.417Z,69.89
2024-01-11T23:49:52.723Z,70.11
2024-01-11T23:52:20.950Z,70.43
2024-01-11T23:54:49.024Z,70.46
2024-01-11T23:57:17.184Z,70.50
2024-01-11T23:59:46.099Z,70.70
